createdAt,value
2022-12-17T13:17:37.859Z,101310.16
2022-12-17T13:20:20.279Z,101313.02
2022-12-17T13:23:15.768Z,101315.53
2022-12-17T13:25:42.757Z,101319.98
2022-12-17T13:28:27.234Z,101327.55
2022-12-17T13:31:13.570Z,101322.61
2022-12-17T13:33:48.739Z,101322.30
2022-12-17T13:36:35.677Z,101323.21
2022-12-17T13:39:23.924Z,101322.66
2022-12-17T13:41:55.845Z,101327.71
2022-12-17T13:44:35.141Z,101335.48
2022-12-17T13:47:02.044Z,101338.05
2022-12-17T13:49:31.120Z,101339.55
2022-12-17T13:52:05.285Z,101344.30
2022-12-17T13:54:35.006Z,101340.30
2022-12-17T13:57:21.154Z,101342.78
2022-12-17T13:59:52.975Z,101339.63
2022-12-17T14:02:30.701Z,101348.13
2022-12-17T14:05:07.724Z,101357.98
2022-12-17T14:07:38.539Z,101359.86
2022-12-17T14:10:15.725Z,101358.38
2022-12-17T14:12:43.190Z,101361.23
2022-12-17T14:15:19.175Z,101366.56
2022-12-17T14:17:48.920Z,101364.04
2022-12-17T14:20:20.672Z,101371.33
2022-12-17T14:22:52.295Z,101375.93
2022-12-17T14:25:26.526Z,101377.18
2022-12-17T14:28:03.873Z,101387.52
2022-12-17T14:30:40.504Z,101394.10
2022-12-17T14:33:30.924Z,101392.61
2022-12-17T14:36:09.418Z,101397.58
2022-12-17T14:38:53.050Z,101399.59
2022-12-17T14:41:39.452Z,101401.12
2022-12-17T14:44:07.070Z,101401.55
2022-12-17T14:46:34.654Z,101395.13
2022-12-17T14:49:05.294Z,101395.92
2022-12-17T14:51:40.317Z,101399.02
2022-12-17T14:54:13.225Z,101400.78
2022-12-17T14:56:41.469Z,101397.73
2022-12-17T14:59:34.451Z,101400.58
2022-12-17T15:02:10.989Z,101398.52
2022-12-17T15:04:38.648Z,101404.09
2022-12-17T15:07:07.143Z,101406.23
2022-12-17T15:09:37.355Z,101404.63
2022-12-17T15:12:04.603Z,101401.69
2022-12-17T15:14:31.555Z,101403.25
2022-12-17T15:16:59.087Z,101412.77
2022-12-17T15:19:25.927Z,101415.88
2022-12-17T15:21:52.812Z,101410.52
2022-12-17T15:24:20.441Z,101415.45
2022-12-17T15:26:48.208Z,101411.71
2022-12-17T15:29:15.229Z,101413.99
2022-12-17T15:31:42.111Z,101415.28
2022-12-17T15:34:11.753Z,101423.73
2022-12-17T15:36:39.210Z,101429.66
2022-12-17T15:39:06.538Z,101433.55
2022-12-17T15:41:51.987Z,101435.65
2022-12-17T15:44:19.459Z,101431.08
2022-12-17T15:46:46.413Z,101435.68
2022-12-17T15:49:13.412Z,101436.52
2022-12-17T15:51:40.188Z,101436.88
2022-12-17T15:54:06.974Z,101438.20
2022-12-17T15:56:34.375Z,101440.60
2022-12-17T15:59:01.335Z,101448.06
2022-12-17T16:01:28.376Z,101452.29
2022-12-17T16:03:55.383Z,101453.29
2022-12-17T16:06:22.265Z,101448.52
2022-12-17T16:08:49.114Z,101445.56
2022-12-17T16:11:15.963Z,101447.71
2022-12-17T16:13:42.969Z,101450.02
2022-12-17T16:16:10.422Z,101448.30
2022-12-17T16:18:38.328Z,101452.80
2022-12-17T16:21:07.814Z,101455.92
2022-12-17T16:23:35.647Z,101451.64
2022-12-17T16:26:05.217Z,101455.55
2022-12-17T16:28:32.102Z,101457.98
2022-12-17T16:31:03.356Z,101460.60
2022-12-17T16:33:35.908Z,101459.92
2022-12-17T16:36:05.078Z,101463.86
2022-12-17T16:38:32.788Z,101462.48
2022-12-17T16:41:02.714Z,101467.25
2022-12-17T16:43:33.623Z,101471.02
2022-12-17T16:46:01.248Z,101473.50
2022-12-17T16:48:28.341Z,101479.34
2022-12-17T16:50:55.684Z,101476.20
2022-12-17T16:53:22.582Z,101481.08
2022-12-17T16:55:49.634Z,101478.51
2022-12-17T16:58:17.751Z,101481.12
2022-12-17T17:00:45.872Z,101484.02
2022-12-17T17:03:13.008Z,101488.60
2022-12-17T17:05:40.075Z,101496.61
2022-12-17T17:08:06.985Z,101504.67
2022-12-17T17:10:36.490Z,101512.55
2022-12-17T17:13:04.324Z,101518.10
2022-12-17T17:15:32.075Z,101520.52
2022-12-17T17:18:02.111Z,101515.36
2022-12-17T17:20:31.592Z,101511.66
2022-12-17T17:22:58.531Z,101508.42
2022-12-17T17:25:38.519Z,101509.75
2022-12-17T17:28:12.116Z,101509.20
2022-12-17T17:30:38.978Z,101514.45
2022-12-17T17:33:05.700Z,101520.57
2022-12-17T17:35:32.539Z,101516.50
2022-12-17T17:37:59.410Z,101520.06
2022-12-17T17:40:26.247Z,101520.13
2022-12-17T17:42:53.367Z,101522.13
2022-12-17T17:45:20.303Z,101524.58
2022-12-17T17:47:47.083Z,101526.05
2022-12-17T17:50:14.404Z,101533.70
2022-12-17T17:52:41.174Z,101533.03
2022-12-17T17:55:08.195Z,101533.11
2022-12-17T17:57:35.273Z,101528.19
2022-12-17T18:00:02.226Z,101535.20
2022-12-17T18:02:29.798Z,101530.55
2022-12-17T18:04:56.811Z,101535.30
2022-12-17T18:07:25.607Z,101541.07
2022-12-17T18:09:54.420Z,101544.45
2022-12-17T18:12:40.477Z,101550.45
2022-12-17T18:15:16.838Z,101552.92
2022-12-17T18:17:49.679Z,101554.99
2022-12-17T18:20:17.633Z,101556.30
2022-12-17T18:22:45.331Z,101554.67
2022-12-17T18:25:12.194Z,101553.60
2022-12-17T18:27:39.204Z,101552.95
2022-12-17T18:30:06.465Z,101557.09
2022-12-17T18:32:33.317Z,101557.55
2022-12-17T18:35:00.296Z,101560.84
2022-12-17T18:37:27.188Z,101563.98
2022-12-17T18:39:53.934Z,101566.77
2022-12-17T18:42:39.705Z,101564.48
2022-12-17T18:45:07.425Z,101571.58
2022-12-17T18:47:34.261Z,101574.34
2022-12-17T18:50:01.176Z,101572.85
2022-12-17T18:52:28.009Z,101566.23
2022-12-17T18:54:54.871Z,101563.40
2022-12-17T18:57:23.793Z,101560.55
2022-12-17T18:59:53.530Z,101563.03
2022-12-17T19:02:20.413Z,101567.23
2022-12-17T19:04:47.702Z,101569.83
2022-12-17T19:07:14.590Z,101576.55
2022-12-17T19:09:42.316Z,101580.08
2022-12-17T19:12:09.494Z,101582.08
2022-12-17T19:14:36.863Z,101580.79
2022-12-17T19:17:05.404Z,101581.27
2022-12-17T19:19:33.088Z,101580.29
2022-12-17T19:21:59.958Z,101582.05
2022-12-17T19:25:43.620Z,101588.38
2022-12-17T19:28:10.521Z,101593.39
2022-12-17T19:30:37.451Z,101598.00
2022-12-17T19:33:12.194Z,101594.78
2022-12-17T19:35:39.162Z,101595.80
2022-12-17T19:38:06.258Z,101593.64
2022-12-17T19:40:34.771Z,101596.86
2022-12-17T19:43:03.428Z,101601.94
2022-12-17T19:45:31.650Z,101600.75
2022-12-17T19:47:58.548Z,101601.33
2022-12-17T19:50:25.275Z,101606.69
2022-12-17T19:52:52.948Z,101605.31
2022-12-17T19:55:21.030Z,101610.94
2022-12-17T19:57:48.150Z,101593.83
2022-12-17T20:00:15.334Z,101608.29
2022-12-17T20:02:42.283Z,101613.36
2022-12-17T20:05:09.399Z,101619.61
2022-12-17T20:07:36.181Z,101617.54
2022-12-17T20:10:03.337Z,101621.64
2022-12-17T20:12:30.226Z,101618.98
2022-12-17T20:14:57.117Z,101616.86
2022-12-17T20:17:25.929Z,101624.35
2022-12-17T20:19:52.803Z,101625.50
2022-12-17T20:22:20.040Z,101629.48
2022-12-17T20:24:46.852Z,101633.58
2022-12-17T20:27:13.794Z,101643.13
2022-12-17T20:29:40.638Z,101644.02
2022-12-17T20:32:07.582Z,101656.52
2022-12-17T20:34:34.400Z,101659.52
2022-12-17T20:37:01.415Z,101659.02
2022-12-17T20:39:28.666Z,101657.40
2022-12-17T20:41:57.483Z,101658.87
2022-12-17T20:44:26.364Z,101663.95
2022-12-17T20:46:56.328Z,101664.52
2022-12-17T20:49:26.394Z,101666.26
2022-12-17T20:52:01.091Z,101662.19
2022-12-17T20:54:35.696Z,101660.48
2022-12-17T20:57:03.979Z,101665.23
2022-12-17T20:59:31.954Z,101665.83
2022-12-17T21:02:02.796Z,101663.73
2022-12-17T21:04:30.090Z,101666.08
2022-12-17T21:06:59.940Z,101666.77
2022-12-17T21:09:31.377Z,101668.60
2022-12-17T21:12:01.940Z,101670.04
2022-12-17T21:14:35.129Z,101672.27
2022-12-17T21:17:07.016Z,101676.52
2022-12-17T21:19:38.666Z,101676.61
2022-12-17T21:22:09.920Z,101676.77
2022-12-17T21:24:39.376Z,101681.64
2022-12-17T21:27:14.262Z,101684.31
2022-12-17T21:29:41.709Z,101683.07
2022-12-17T21:32:08.649Z,101688.02
2022-12-17T21:34:35.566Z,101693.30
2022-12-17T21:37:02.579Z,101692.48
2022-12-17T21:39:29.464Z,101695.34
2022-12-17T21:42:15.193Z,101696.13
2022-12-17T21:44:41.963Z,101702.09
2022-12-17T21:47:09.059Z,101703.23
2022-12-17T21:49:35.849Z,101698.13
2022-12-17T21:52:03.653Z,101698.46
2022-12-17T21:54:30.753Z,101695.78
2022-12-17T21:56:57.585Z,101695.06
2022-12-17T21:59:24.477Z,101700.20
2022-12-17T22:01:52.401Z,101706.84
2022-12-17T22:04:19.558Z,101708.54
2022-12-17T22:06:52.670Z,101706.35
2022-12-17T22:09:51.380Z,101702.66
2022-12-17T22:12:31.381Z,101707.23
2022-12-17T22:14:58.200Z,101710.75
2022-12-17T22:17:25.668Z,101720.19
2022-12-17T22:19:52.601Z,101726.55
2022-12-17T22:22:19.461Z,101731.52
2022-12-17T22:24:46.280Z,101733.77
2022-12-17T22:27:13.236Z,101730.55
2022-12-17T22:29:58.362Z,101733.72
2022-12-17T22:32:43.838Z,101737.91
2022-12-17T22:37:02.976Z,101740.82
2022-12-17T22:42:31.025Z,101739.80
2022-12-17T22:44:33.954Z,101733.64
2022-12-17T22:44:37.199Z,101740.83
2022-12-17T22:46:19.686Z,101747.14
2022-12-17T22:48:47.051Z,101748.91
2022-12-17T22:51:22.597Z,101750.61
2022-12-17T22:54:03.446Z,101756.34
2022-12-17T22:57:34.698Z,101757.83
2022-12-17T22:59:18.876Z,101763.53
2022-12-17T23:01:46.380Z,101761.63
2022-12-17T23:04:15.229Z,101766.00
2022-12-17T23:06:44.884Z,101763.12
2022-12-17T23:09:17.741Z,101759.44
2022-12-17T23:11:46.093Z,101760.02
2022-12-17T23:14:13.039Z,101756.35
2022-12-17T23:16:40.738Z,101763.52
2022-12-17T23:19:09.051Z,101766.79
2022-12-17T23:21:36.260Z,101774.45
2022-12-17T23:24:04.080Z,101781.09
2022-12-17T23:26:34.322Z,101780.94
2022-12-17T23:29:06.747Z,101783.20
2022-12-17T23:31:38.139Z,101783.92
2022-12-17T23:34:06.161Z,101783.55
2022-12-17T23:36:33.602Z,101782.83
2022-12-17T23:39:00.419Z,101784.86
2022-12-17T23:41:29.576Z,101785.55
2022-12-17T23:43:57.700Z,101787.02
2022-12-17T23:46:26.811Z,101789.71
2022-12-17T23:48:54.338Z,101793.17
2022-12-17T23:51:22.820Z,101800.86
2022-12-17T23:53:49.676Z,101800.86
2022-12-17T23:56:18.068Z,101798.30
2022-12-17T23:58:45.909Z,101808.59
